sensor_id;sensor_type;location;lat;lon;timestamp;temperature;humidity
46458;DHT22;32155;54.076;12.092;2024-01-07T00:01:38;0.00;99.90
46458;DHT22;32155;54.076;12.092;2024-01-07T00:04:03;0.00;99.90
46458;DHT22;32155;54.076;12.092;2024-01-07T00:06:29;0.00;99.90
46458;DHT22;32155;54.076;12.092;2024-01-07T00:08:57;0.00;99.90
46458;DHT22;32155;54.076;12.092;2024-01-07T00:11:23;0.10;99.90
46458;DHT22;32155;54.076;12.092;2024-01-07T00:13:48;0.10;99.90
46458;DHT22;32155;54.076;12.092;2024-01-07T00:16:14;0.00;99.90
46458;DHT22;32155;54.076;12.092;2024-01-07T00:18:39;0.10;99.90
46458;DHT22;32155;54.076;12.092;2024-01-07T00:21:05;0.00;99.90
46458;DHT22;32155;54.076;12.092;2024-01-07T00:23:30;0.00;99.90
46458;DHT22;32155;54.076;12.092;2024-01-07T00:25:56;0.00;99.90
46458;DHT22;32155;54.076;12.092;2024-01-07T00:28:21;0.00;99.90
46458;DHT22;32155;54.076;12.092;2024-01-07T00:30:47;0.10;99.90
46458;DHT22;32155;54.076;12.092;2024-01-07T00:33:12;0.10;99.90
46458;DHT22;32155;54.076;12.092;2024-01-07T00:35:38;0.00;99.90
46458;DHT22;32155;54.076;12.092;2024-01-07T00:38:03;0.00;99.90
46458;DHT22;32155;54.076;12.092;2024-01-07T00:40:29;0.10;99.90
46458;DHT22;32155;54.076;12.092;2024-01-07T00:42:55;0.00;99.90
46458;DHT22;32155;54.076;12.092;2024-01-07T00:45:20;0.00;99.90
46458;DHT22;32155;54.076;12.092;2024-01-07T00:47:46;0.10;99.90
46458;DHT22;32155;54.076;12.092;2024-01-07T00:50:14;0.10;99.90
46458;DHT22;32155;54.076;12.092;2024-01-07T00:52:40;0.10;99.90
46458;DHT22;32155;54.076;12.092;2024-01-07T00:55:07;0.10;99.90
46458;DHT22;32155;54.076;12.092;2024-01-07T00:57:36;0.10;99.90
46458;DHT22;32155;54.076;12.092;2024-01-07T01:00:04;0.00;99.90
46458;DHT22;32155;54.076;12.092;2024-01-07T01:02:33;0.00;99.90
46458;DHT22;32155;54.076;12.092;2024-01-07T01:05:01;0.00;99.90
46458;DHT22;32155;54.076;12.092;2024-01-07T01:07:29;0.10;99.90
46458;DHT22;32155;54.076;12.092;2024-01-07T01:09:54;0.10;99.90
46458;DHT22;32155;54.076;12.092;2024-01-07T01:12:20;0.10;99.90
46458;DHT22;32155;54.076;12.092;2024-01-07T01:14:45;0.00;99.90
46458;DHT22;32155;54.076;12.092;2024-01-07T01:17:11;0.00;99.90
46458;DHT22;32155;54.076;12.092;2024-01-07T01:19:36;0.00;99.90
46458;DHT22;32155;54.076;12.092;2024-01-07T01:22:02;0.10;99.90
46458;DHT22;32155;54.076;12.092;2024-01-07T01:24:30;0.10;99.90
46458;DHT22;32155;54.076;12.092;2024-01-07T01:26:55;0.10;99.90
46458;DHT22;32155;54.076;12.092;2024-01-07T01:29:21;0.10;99.90
46458;DHT22;32155;54.076;12.092;2024-01-07T01:31:46;0.10;99.90
46458;DHT22;32155;54.076;12.092;2024-01-07T01:36:42;0.20;99.90
46458;DHT22;32155;54.076;12.092;2024-01-07T01:39:08;0.20;99.90
46458;DHT22;32155;54.076;12.092;2024-01-07T01:41:33;0.20;99.90
46458;DHT22;32155;54.076;12.092;2024-01-07T01:43:59;0.10;99.90
46458;DHT22;32155;54.076;12.092;2024-01-07T01:46:25;0.10;99.90
46458;DHT22;32155;54.076;12.092;2024-01-07T01:48:51;0.10;99.90
46458;DHT22;32155;54.076;12.092;2024-01-07T01:51:17;0.10;99.90
46458;DHT22;32155;54.076;12.092;2024-01-07T01:53:42;0.20;99.90
46458;DHT22;32155;54.076;12.092;2024-01-07T01:56:08;0.20;99.90
46458;DHT22;32155;54.076;12.092;2024-01-07T01:58:34;0.20;99.90
46458;DHT22;32155;54.076;12.092;2024-01-07T02:01:02;0.20;99.90
46458;DHT22;32155;54.076;12.092;2024-01-07T02:03:28;0.30;99.90
46458;DHT22;32155;54.076;12.092;2024-01-07T02:05:54;0.20;99.90
46458;DHT22;32155;54.076;12.092;2024-01-07T02:08:20;0.30;99.90
46458;DHT22;32155;54.076;12.092;2024-01-07T02:10:48;0.30;99.90
46458;DHT22;32155;54.076;12.092;2024-01-07T02:13:14;0.30;99.90
46458;DHT22;32155;54.076;12.092;2024-01-07T02:15:39;0.30;99.90
46458;DHT22;32155;54.076;12.092;2024-01-07T02:18:05;0.30;99.90
46458;DHT22;32155;54.076;12.092;2024-01-07T02:20:30;0.30;99.90
46458;DHT22;32155;54.076;12.092;2024-01-07T02:22:58;0.30;99.90
46458;DHT22;32155;54.076;12.092;2024-01-07T02:25:24;0.40;99.90
46458;DHT22;32155;54.076;12.092;2024-01-07T02:27:50;0.30;99.90
46458;DHT22;32155;54.076;12.092;2024-01-07T02:30:15;0.40;99.90
46458;DHT22;32155;54.076;12.092;2024-01-07T02:32:41;0.30;99.90
46458;DHT22;32155;54.076;12.092;2024-01-07T02:35:09;0.30;99.90
46458;DHT22;32155;54.076;12.092;2024-01-07T02:37:35;0.40;99.90
46458;DHT22;32155;54.076;12.092;2024-01-07T02:40:00;0.30;99.90
46458;DHT22;32155;54.076;12.092;2024-01-07T02:42:26;0.50;99.90
46458;DHT22;32155;54.076;12.092;2024-01-07T02:44:54;0.50;99.90
46458;DHT22;32155;54.076;12.092;2024-01-07T02:47:19;0.50;99.90
46458;DHT22;32155;54.076;12.092;2024-01-07T02:49:49;0.50;99.90
46458;DHT22;32155;54.076;12.092;2024-01-07T02:52:15;0.50;99.90
46458;DHT22;32155;54.076;12.092;2024-01-07T02:54:41;0.40;99.90
46458;DHT22;32155;54.076;12.092;2024-01-07T02:57:06;0.40;99.90
46458;DHT22;32155;54.076;12.092;2024-01-07T02:59:32;0.50;99.90
46458;DHT22;32155;54.076;12.092;2024-01-07T03:02:00;0.50;99.90
46458;DHT22;32155;54.076;12.092;2024-01-07T03:04:25;0.50;99.90
46458;DHT22;32155;54.076;12.092;2024-01-07T03:06:51;0.50;99.90
46458;DHT22;32155;54.076;12.092;2024-01-07T03:09:16;0.40;99.90
46458;DHT22;32155;54.076;12.092;2024-01-07T03:11:42;0.40;99.90
46458;DHT22;32155;54.076;12.092;2024-01-07T03:14:10;0.40;99.90
46458;DHT22;32155;54.076;12.092;2024-01-07T03:16:35;0.40;99.90
46458;DHT22;32155;54.076;12.092;2024-01-07T03:19:01;0.40;99.90
46458;DHT22;32155;54.076;12.092;2024-01-07T03:21:27;0.40;99.90
46458;DHT22;32155;54.076;12.092;2024-01-07T03:23:55;0.50;99.90
46458;DHT22;32155;54.076;12.092;2024-01-07T03:26:21;0.40;99.90
46458;DHT22;32155;54.076;12.092;2024-01-07T03:28:46;0.40;99.90
46458;DHT22;32155;54.076;12.092;2024-01-07T03:31:14;0.50;99.90
46458;DHT22;32155;54.076;12.092;2024-01-07T03:33:41;0.50;99.90
46458;DHT22;32155;54.076;12.092;2024-01-07T03:36:10;0.50;99.90
46458;DHT22;32155;54.076;12.092;2024-01-07T03:38:36;0.50;99.90
46458;DHT22;32155;54.076;12.092;2024-01-07T03:41:02;0.40;99.90
46458;DHT22;32155;54.076;12.092;2024-01-07T03:43:28;0.40;99.90
46458;DHT22;32155;54.076;12.092;2024-01-07T03:45:55;0.40;99.90
46458;DHT22;32155;54.076;12.092;2024-01-07T03:48:21;0.50;99.90
46458;DHT22;32155;54.076;12.092;2024-01-07T03:50:46;0.40;99.90
46458;DHT22;32155;54.076;12.092;2024-01-07T03:53:12;0.40;99.90
46458;DHT22;32155;54.076;12.092;2024-01-07T03:55:38;0.40;99.90
46458;DHT22;32155;54.076;12.092;2024-01-07T03:58:04;0.40;99.90
46458;DHT22;32155;54.076;12.092;2024-01-07T04:00:30;0.30;99.90
46458;DHT22;32155;54.076;12.092;2024-01-07T04:02:58;0.40;99.90
46458;DHT22;32155;54.076;12.092;2024-01-07T04:05:26;0.40;99.90
46458;DHT22;32155;54.076;12.092;2024-01-07T04:07:51;0.40;99.90
46458;DHT22;32155;54.076;12.092;2024-01-07T04:10:17;0.30;99.90
46458;DHT22;32155;54.076;12.092;2024-01-07T04:12:42;0.40;99.90
46458;DHT22;32155;54.076;12.092;2024-01-07T04:15:08;0.40;99.90
46458;DHT22;32155;54.076;12.092;2024-01-07T04:17:34;0.40;99.90
46458;DHT22;32155;54.076;12.092;2024-01-07T04:19:59;0.40;99.90
46458;DHT22;32155;54.076;12.092;2024-01-07T04:22:25;0.30;99.90
46458;DHT22;32155;54.076;12.092;2024-01-07T04:24:53;0.30;99.90
46458;DHT22;32155;54.076;12.092;2024-01-07T04:27:21;0.30;99.90
46458;DHT22;32155;54.076;12.092;2024-01-07T04:29:46;0.30;99.90
46458;DHT22;32155;54.076;12.092;2024-01-07T04:32:12;0.20;99.90
46458;DHT22;32155;54.076;12.092;2024-01-07T04:34:37;0.30;99.90
46458;DHT22;32155;54.076;12.092;2024-01-07T04:37:03;0.30;99.90
46458;DHT22;32155;54.076;12.092;2024-01-07T04:39:28;0.40;99.90
46458;DHT22;32155;54.076;12.092;2024-01-07T04:41:56;0.30;99.90
46458;DHT22;32155;54.076;12.092;2024-01-07T04:44:22;0.30;99.90
46458;DHT22;32155;54.076;12.092;2024-01-07T04:46:47;0.30;99.90
46458;DHT22;32155;54.076;12.092;2024-01-07T04:49:14;0.30;99.90
46458;DHT22;32155;54.076;12.092;2024-01-07T04:51:40;0.30;99.90
46458;DHT22;32155;54.076;12.092;2024-01-07T04:54:05;0.30;99.90
46458;DHT22;32155;54.076;12.092;2024-01-07T04:56:33;0.40;99.90
46458;DHT22;32155;54.076;12.092;2024-01-07T04:58:58;0.30;99.90
46458;DHT22;32155;54.076;12.092;2024-01-07T05:01:24;0.40;99.90
46458;DHT22;32155;54.076;12.092;2024-01-07T05:03:49;0.30;99.90
46458;DHT22;32155;54.076;12.092;2024-01-07T05:06:15;0.30;99.90
46458;DHT22;32155;54.076;12.092;2024-01-07T05:08:40;0.30;99.90
46458;DHT22;32155;54.076;12.092;2024-01-07T05:11:06;0.30;99.90
46458;DHT22;32155;54.076;12.092;2024-01-07T05:13:32;0.30;99.90
46458;DHT22;32155;54.076;12.092;2024-01-07T05:15:58;0.30;99.90
46458;DHT22;32155;54.076;12.092;2024-01-07T05:18:23;0.30;99.90
46458;DHT22;32155;54.076;12.092;2024-01-07T05:20:49;0.10;99.90
46458;DHT22;32155;54.076;12.092;2024-01-07T05:23:15;0.10;99.90
46458;DHT22;32155;54.076;12.092;2024-01-07T05:25:44;0.10;99.90
46458;DHT22;32155;54.076;12.092;2024-01-07T05:28:10;0.00;99.90
46458;DHT22;32155;54.076;12.092;2024-01-07T05:30:35;0.10;99.90
46458;DHT22;32155;54.076;12.092;2024-01-07T05:33:01;0.00;99.90
46458;DHT22;32155;54.076;12.092;2024-01-07T05:35:27;0.00;99.90
46458;DHT22;32155;54.076;12.092;2024-01-07T05:37:52;0.00;99.90
46458;DHT22;32155;54.076;12.092;2024-01-07T05:40:18;0.00;99.90
46458;DHT22;32155;54.076;12.092;2024-01-07T05:42:43;-0.20;99.90
46458;DHT22;32155;54.076;12.092;2024-01-07T05:45:09;-0.20;99.90
46458;DHT22;32155;54.076;12.092;2024-01-07T05:47:34;-0.30;99.90
46458;DHT22;32155;54.076;12.092;2024-01-07T05:50:00;-0.40;99.90
46458;DHT22;32155;54.076;12.092;2024-01-07T05:52:27;-0.50;99.90
46458;DHT22;32155;54.076;12.092;2024-01-07T05:54:53;-0.50;99.90
46458;DHT22;32155;54.076;12.092;2024-01-07T05:57:21;-0.60;99.90
46458;DHT22;32155;54.076;12.092;2024-01-07T05:59:47;-0.60;99.90
46458;DHT22;32155;54.076;12.092;2024-01-07T06:02:13;-0.70;99.90
46458;DHT22;32155;54.076;12.092;2024-01-07T06:04:38;-0.70;99.90
46458;DHT22;32155;54.076;12.092;2024-01-07T06:07:04;-0.80;99.90
46458;DHT22;32155;54.076;12.092;2024-01-07T06:09:30;-0.90;99.90
46458;DHT22;32155;54.076;12.092;2024-01-07T06:11:55;-0.90;99.90
46458;DHT22;32155;54.076;12.092;2024-01-07T06:14:21;-0.90;99.90
46458;DHT22;32155;54.076;12.092;2024-01-07T06:16:47;-0.90;99.90
46458;DHT22;32155;54.076;12.092;2024-01-07T06:19:12;-0.90;99.90
46458;DHT22;32155;54.076;12.092;2024-01-07T06:21:40;-0.90;99.90
46458;DHT22;32155;54.076;12.092;2024-01-07T06:24:09;-1.00;99.90
46458;DHT22;32155;54.076;12.092;2024-01-07T06:26:34;-1.10;99.90
46458;DHT22;32155;54.076;12.092;2024-01-07T06:29:00;-1.20;99.90
46458;DHT22;32155;54.076;12.092;2024-01-07T06:31:26;-1.20;99.90
46458;DHT22;32155;54.076;12.092;2024-01-07T06:33:52;-1.30;99.90
46458;DHT22;32155;54.076;12.092;2024-01-07T06:36:17;-1.40;99.90
46458;DHT22;32155;54.076;12.092;2024-01-07T06:38:43;-1.40;99.90
46458;DHT22;32155;54.076;12.092;2024-01-07T06:41:11;-1.40;99.90
46458;DHT22;32155;54.076;12.092;2024-01-07T06:43:38;-1.30;99.90
46458;DHT22;32155;54.076;12.092;2024-01-07T06:46:04;-1.40;99.90
46458;DHT22;32155;54.076;12.092;2024-01-07T06:48:29;-1.50;99.90
46458;DHT22;32155;54.076;12.092;2024-01-07T06:50:55;-1.50;99.90
46458;DHT22;32155;54.076;12.092;2024-01-07T06:53:20;-1.50;99.90
46458;DHT22;32155;54.076;12.092;2024-01-07T06:55:46;-1.40;99.90
46458;DHT22;32155;54.076;12.092;2024-01-07T06:58:12;-1.50;99.90
46458;DHT22;32155;54.076;12.092;2024-01-07T07:00:37;-1.60;99.90
46458;DHT22;32155;54.076;12.092;2024-01-07T07:03:03;-1.70;99.90
46458;DHT22;32155;54.076;12.092;2024-01-07T07:05:28;-1.70;99.90
46458;DHT22;32155;54.076;12.092;2024-01-07T07:07:56;-1.60;99.90
46458;DHT22;32155;54.076;12.092;2024-01-07T07:10:22;-1.70;99.90
46458;DHT22;32155;54.076;12.092;2024-01-07T07:12:47;-1.70;99.90
46458;DHT22;32155;54.076;12.092;2024-01-07T07:15:13;-1.70;99.90
46458;DHT22;32155;54.076;12.092;2024-01-07T07:17:38;-1.80;99.90
46458;DHT22;32155;54.076;12.092;2024-01-07T07:20:04;-1.80;99.90
46458;DHT22;32155;54.076;12.092;2024-01-07T07:22:32;-1.80;99.90
46458;DHT22;32155;54.076;12.092;2024-01-07T07:24:58;-1.80;99.90
46458;DHT22;32155;54.076;12.092;2024-01-07T07:27:23;-1.80;99.90
46458;DHT22;32155;54.076;12.092;2024-01-07T07:29:49;-1.80;99.90
46458;DHT22;32155;54.076;12.092;2024-01-07T07:32:14;-1.80;99.90
46458;DHT22;32155;54.076;12.092;2024-01-07T07:34:40;-1.70;99.90
46458;DHT22;32155;54.076;12.092;2024-01-07T07:37:08;-1.70;99.90
46458;DHT22;32155;54.076;12.092;2024-01-07T07:39:33;-1.70;99.90
46458;DHT22;32155;54.076;12.092;2024-01-07T07:41:59;-1.60;99.90
46458;DHT22;32155;54.076;12.092;2024-01-07T07:44:30;-1.50;99.90
46458;DHT22;32155;54.076;12.092;2024-01-07T07:46:56;-1.60;99.90
46458;DHT22;32155;54.076;12.092;2024-01-07T07:49:21;-1.50;99.90
46458;DHT22;32155;54.076;12.092;2024-01-07T07:51:47;-1.50;99.90
46458;DHT22;32155;54.076;12.092;2024-01-07T07:54:12;-1.50;99.90
46458;DHT22;32155;54.076;12.092;2024-01-07T07:56:38;-1.50;99.90
46458;DHT22;32155;54.076;12.092;2024-01-07T07:59:03;-1.50;99.90
46458;DHT22;32155;54.076;12.092;2024-01-07T08:01:29;-1.40;99.90
46458;DHT22;32155;54.076;12.092;2024-01-07T08:03:57;-1.40;99.90
46458;DHT22;32155;54.076;12.092;2024-01-07T08:06:22;-1.40;99.90
46458;DHT22;32155;54.076;12.092;2024-01-07T08:08:48;-1.40;99.90
46458;DHT22;32155;54.076;12.092;2024-01-07T08:11:13;-1.30;99.90
46458;DHT22;32155;54.076;12.092;2024-01-07T08:13:39;-1.40;99.90
46458;DHT22;32155;54.076;12.092;2024-01-07T08:16:05;-1.30;99.90
46458;DHT22;32155;54.076;12.092;2024-01-07T08:18:31;-1.10;99.90
46458;DHT22;32155;54.076;12.092;2024-01-07T08:20:56;-0.90;99.90
46458;DHT22;32155;54.076;12.092;2024-01-07T08:23:23;-0.70;99.90
46458;DHT22;32155;54.076;12.092;2024-01-07T08:25:49;-0.40;99.90
46458;DHT22;32155;54.076;12.092;2024-01-07T08:28:16;-0.30;99.90
46458;DHT22;32155;54.076;12.092;2024-01-07T08:30:42;-0.20;99.90
46458;DHT22;32155;54.076;12.092;2024-01-07T08:33:07;0.00;99.90
46458;DHT22;32155;54.076;12.092;2024-01-07T08:35:33;0.00;99.90
46458;DHT22;32155;54.076;12.092;2024-01-07T08:38:01;0.10;99.90
46458;DHT22;32155;54.076;12.092;2024-01-07T08:40:27;0.20;99.90
46458;DHT22;32155;54.076;12.092;2024-01-07T08:42:52;0.40;99.90
46458;DHT22;32155;54.076;12.092;2024-01-07T08:45:18;0.60;99.90
46458;DHT22;32155;54.076;12.092;2024-01-07T08:47:44;0.80;99.90
46458;DHT22;32155;54.076;12.092;2024-01-07T08:50:10;1.10;99.90
46458;DHT22;32155;54.076;12.092;2024-01-07T08:52:35;1.10;99.90
46458;DHT22;32155;54.076;12.092;2024-01-07T08:55:01;1.10;99.90
46458;DHT22;32155;54.076;12.092;2024-01-07T08:57:27;1.10;99.90
46458;DHT22;32155;54.076;12.092;2024-01-07T08:59:55;1.10;99.90
46458;DHT22;32155;54.076;12.092;2024-01-07T09:02:23;1.10;99.90
46458;DHT22;32155;54.076;12.092;2024-01-07T09:04:49;1.00;99.90
46458;DHT22;32155;54.076;12.092;2024-01-07T09:07:14;1.10;99.90
46458;DHT22;32155;54.076;12.092;2024-01-07T09:09:42;1.20;99.90
46458;DHT22;32155;54.076;12.092;2024-01-07T09:12:07;1.30;99.90
46458;DHT22;32155;54.076;12.092;2024-01-07T09:14:33;1.20;99.90
46458;DHT22;32155;54.076;12.092;2024-01-07T09:16:59;1.30;99.90
46458;DHT22;32155;54.076;12.092;2024-01-07T09:19:25;1.20;99.90
46458;DHT22;32155;54.076;12.092;2024-01-07T09:21:50;1.30;99.90
46458;DHT22;32155;54.076;12.092;2024-01-07T09:24:16;1.40;99.90
46458;DHT22;32155;54.076;12.092;2024-01-07T09:26:41;1.30;99.90
46458;DHT22;32155;54.076;12.092;2024-01-07T09:29:07;1.30;99.90
46458;DHT22;32155;54.076;12.092;2024-01-07T09:31:32;1.20;99.90
46458;DHT22;32155;54.076;12.092;2024-01-07T09:33:58;1.20;99.90
46458;DHT22;32155;54.076;12.092;2024-01-07T09:36:26;1.10;99.90
46458;DHT22;32155;54.076;12.092;2024-01-07T09:38:51;1.10;99.90
46458;DHT22;32155;54.076;12.092;2024-01-07T09:41:19;1.00;99.90
46458;DHT22;32155;54.076;12.092;2024-01-07T09:43:44;1.00;99.90
46458;DHT22;32155;54.076;12.092;2024-01-07T09:46:10;1.10;99.90
46458;DHT22;32155;54.076;12.092;2024-01-07T09:48:35;1.30;99.90
46458;DHT22;32155;54.076;12.092;2024-01-07T09:51:01;1.40;99.90
46458;DHT22;32155;54.076;12.092;2024-01-07T09:53:29;1.60;99.90
46458;DHT22;32155;54.076;12.092;2024-01-07T09:56:06;2.00;99.90
46458;DHT22;32155;54.076;12.092;2024-01-07T09:58:32;2.60;99.90
46458;DHT22;32155;54.076;12.092;2024-01-07T10:01:00;3.00;99.90
46458;DHT22;32155;54.076;12.092;2024-01-07T10:03:26;3.40;99.90
46458;DHT22;32155;54.076;12.092;2024-01-07T10:05:52;3.20;99.90
46458;DHT22;32155;54.076;12.092;2024-01-07T10:08:18;3.10;99.90
46458;DHT22;32155;54.076;12.092;2024-01-07T10:10:44;3.20;99.90
46458;DHT22;32155;54.076;12.092;2024-01-07T10:13:09;3.20;99.90
46458;DHT22;32155;54.076;12.092;2024-01-07T10:15:35;3.20;99.90
46458;DHT22;32155;54.076;12.092;2024-01-07T10:18:02;3.10;99.90
46458;DHT22;32155;54.076;12.092;2024-01-07T10:20:28;3.10;99.90
46458;DHT22;32155;54.076;12.092;2024-01-07T10:22:53;2.80;99.90
46458;DHT22;32155;54.076;12.092;2024-01-07T10:25:19;2.50;99.90
46458;DHT22;32155;54.076;12.092;2024-01-07T10:27:44;2.20;99.90
46458;DHT22;32155;54.076;12.092;2024-01-07T10:30:10;2.10;99.90
46458;DHT22;32155;54.076;12.092;2024-01-07T10:32:36;2.00;99.90
46458;DHT22;32155;54.076;12.092;2024-01-07T10:35:02;1.90;99.90
46458;DHT22;32155;54.076;12.092;2024-01-07T10:37:31;1.80;99.90
46458;DHT22;32155;54.076;12.092;2024-01-07T10:40:00;1.80;99.90
46458;DHT22;32155;54.076;12.092;2024-01-07T10:42:32;1.70;99.90
46458;DHT22;32155;54.076;12.092;2024-01-07T10:44:58;1.60;99.90
46458;DHT22;32155;54.076;12.092;2024-01-07T10:47:27;1.60;99.90
46458;DHT22;32155;54.076;12.092;2024-01-07T10:49:55;1.60;99.90
46458;DHT22;32155;54.076;12.092;2024-01-07T10:52:26;1.60;99.90
46458;DHT22;32155;54.076;12.092;2024-01-07T10:54:52;1.60;99.90
46458;DHT22;32155;54.076;12.092;2024-01-07T10:59:46;1.80;99.90
46458;DHT22;32155;54.076;12.092;2024-01-07T11:02:12;1.70;99.90
46458;DHT22;32155;54.076;12.092;2024-01-07T11:07:34;2.00;99.90
46458;DHT22;32155;54.076;12.092;2024-01-07T11:12:31;2.70;99.90
46458;DHT22;32155;54.076;12.092;2024-01-07T11:14:57;2.70;99.90
46458;DHT22;32155;54.076;12.092;2024-01-07T11:20:02;2.70;99.90
46458;DHT22;32155;54.076;12.092;2024-01-07T11:22:30;2.60;99.90
46458;DHT22;32155;54.076;12.092;2024-01-07T11:25:02;2.40;99.90
46458;DHT22;32155;54.076;12.092;2024-01-07T11:27:33;2.30;99.90
46458;DHT22;32155;54.076;12.092;2024-01-07T11:30:02;2.00;99.90
46458;DHT22;32155;54.076;12.092;2024-01-07T11:32:33;1.90;99.90
46458;DHT22;32155;54.076;12.092;2024-01-07T11:34:58;1.90;99.90
46458;DHT22;32155;54.076;12.092;2024-01-07T11:37:25;1.70;99.90
46458;DHT22;32155;54.076;12.092;2024-01-07T11:39:55;1.80;99.90
46458;DHT22;32155;54.076;12.092;2024-01-07T11:42:22;2.10;99.90
46458;DHT22;32155;54.076;12.092;2024-01-07T11:44:48;2.40;99.90
46458;DHT22;32155;54.076;12.092;2024-01-07T11:47:15;5.70;99.90
46458;DHT22;32155;54.076;12.092;2024-01-07T11:49:41;10.10;99.90
46458;DHT22;32155;54.076;12.092;2024-01-07T11:52:09;12.50;99.90
46458;DHT22;32155;54.076;12.092;2024-01-07T11:54:37;10.70;99.90
46458;DHT22;32155;54.076;12.092;2024-01-07T11:57:03;10.30;99.90
46458;DHT22;32155;54.076;12.092;2024-01-07T11:59:29;9.90;99.90
46458;DHT22;32155;54.076;12.092;2024-01-07T12:01:55;9.80;99.90
46458;DHT22;32155;54.076;12.092;2024-01-07T12:04:24;8.60;99.90
46458;DHT22;32155;54.076;12.092;2024-01-07T12:06:49;8.20;99.90
46458;DHT22;32155;54.076;12.092;2024-01-07T12:09:16;7.40;99.90
46458;DHT22;32155;54.076;12.092;2024-01-07T12:11:41;6.20;99.90
46458;DHT22;32155;54.076;12.092;2024-01-07T12:14:08;5.70;99.90
46458;DHT22;32155;54.076;12.092;2024-01-07T12:16:36;5.10;99.90
46458;DHT22;32155;54.076;12.092;2024-01-07T12:19:04;4.50;99.90
46458;DHT22;32155;54.076;12.092;2024-01-07T12:21:32;4.00;99.90
46458;DHT22;32155;54.076;12.092;2024-01-07T12:23:58;3.50;99.90
46458;DHT22;32155;54.076;12.092;2024-01-07T12:26:27;3.20;99.90
46458;DHT22;32155;54.076;12.092;2024-01-07T12:28:53;3.20;99.90
46458;DHT22;32155;54.076;12.092;2024-01-07T12:31:20;3.20;99.90
46458;DHT22;32155;54.076;12.092;2024-01-07T12:33:46;3.30;99.90
46458;DHT22;32155;54.076;12.092;2024-01-07T12:36:12;3.10;99.90
46458;DHT22;32155;54.076;12.092;2024-01-07T12:38:37;2.80;99.90
46458;DHT22;32155;54.076;12.092;2024-01-07T12:41:03;2.60;99.90
46458;DHT22;32155;54.076;12.092;2024-01-07T12:43:29;2.40;99.90
46458;DHT22;32155;54.076;12.092;2024-01-07T12:45:55;2.30;99.90
46458;DHT22;32155;54.076;12.092;2024-01-07T12:48:22;2.30;99.90
46458;DHT22;32155;54.076;12.092;2024-01-07T12:50:48;2.10;99.90
46458;DHT22;32155;54.076;12.092;2024-01-07T12:53:17;2.10;99.90
46458;DHT22;32155;54.076;12.092;2024-01-07T12:55:42;2.10;99.90
46458;DHT22;32155;54.076;12.092;2024-01-07T12:58:10;2.10;99.90
46458;DHT22;32155;54.076;12.092;2024-01-07T13:00:36;2.00;99.90
46458;DHT22;32155;54.076;12.092;2024-01-07T13:03:01;1.90;99.90
46458;DHT22;32155;54.076;12.092;2024-01-07T13:05:27;1.90;99.90
46458;DHT22;32155;54.076;12.092;2024-01-07T13:07:52;1.60;99.90
46458;DHT22;32155;54.076;12.092;2024-01-07T13:10:20;1.60;99.90
46458;DHT22;32155;54.076;12.092;2024-01-07T13:12:46;1.60;99.90
46458;DHT22;32155;54.076;12.092;2024-01-07T13:15:11;1.50;99.90
46458;DHT22;32155;54.076;12.092;2024-01-07T13:17:37;1.40;99.90
46458;DHT22;32155;54.076;12.092;2024-01-07T13:20:06;1.40;99.90
46458;DHT22;32155;54.076;12.092;2024-01-07T13:22:32;1.40;99.90
46458;DHT22;32155;54.076;12.092;2024-01-07T13:24:57;1.40;99.90
46458;DHT22;32155;54.076;12.092;2024-01-07T13:27:24;1.30;99.90
46458;DHT22;32155;54.076;12.092;2024-01-07T13:29:49;1.40;99.90
46458;DHT22;32155;54.076;12.092;2024-01-07T13:32:15;1.40;99.90
46458;DHT22;32155;54.076;12.092;2024-01-07T13:34:43;1.30;99.90
46458;DHT22;32155;54.076;12.092;2024-01-07T13:37:08;1.30;99.90
46458;DHT22;32155;54.076;12.092;2024-01-07T13:39:34;1.30;99.90
46458;DHT22;32155;54.076;12.092;2024-01-07T13:42:03;1.10;99.90
46458;DHT22;32155;54.076;12.092;2024-01-07T13:44:29;1.00;99.90
46458;DHT22;32155;54.076;12.092;2024-01-07T13:46:55;0.90;99.90
46458;DHT22;32155;54.076;12.092;2024-01-07T13:49:23;1.00;99.90
46458;DHT22;32155;54.076;12.092;2024-01-07T13:51:49;1.00;99.90
46458;DHT22;32155;54.076;12.092;2024-01-07T13:54:14;0.90;99.90
46458;DHT22;32155;54.076;12.092;2024-01-07T13:56:43;0.90;99.90
46458;DHT22;32155;54.076;12.092;2024-01-07T13:59:10;0.90;99.90
46458;DHT22;32155;54.076;12.092;2024-01-07T14:01:35;0.90;99.90
46458;DHT22;32155;54.076;12.092;2024-01-07T14:04:04;1.00;99.90
46458;DHT22;32155;54.076;12.092;2024-01-07T14:06:30;0.90;99.90
46458;DHT22;32155;54.076;12.092;2024-01-07T14:08:55;0.80;99.90
46458;DHT22;32155;54.076;12.092;2024-01-07T14:11:21;0.60;99.90
46458;DHT22;32155;54.076;12.092;2024-01-07T14:13:47;0.60;99.90
46458;DHT22;32155;54.076;12.092;2024-01-07T14:16:13;0.40;99.90
46458;DHT22;32155;54.076;12.092;2024-01-07T14:18:39;0.30;99.90
46458;DHT22;32155;54.076;12.092;2024-01-07T14:21:04;0.30;99.90
46458;DHT22;32155;54.076;12.092;2024-01-07T14:23:30;0.40;99.90
46458;DHT22;32155;54.076;12.092;2024-01-07T14:25:56;0.50;99.90
46458;DHT22;32155;54.076;12.092;2024-01-07T14:28:22;0.60;99.90
46458;DHT22;32155;54.076;12.092;2024-01-07T14:30:48;0.60;99.90
46458;DHT22;32155;54.076;12.092;2024-01-07T14:33:14;0.70;99.90
46458;DHT22;32155;54.076;12.092;2024-01-07T14:35:39;0.50;99.90
46458;DHT22;32155;54.076;12.092;2024-01-07T14:38:05;0.40;99.90
46458;DHT22;32155;54.076;12.092;2024-01-07T14:40:33;0.20;99.90
46458;DHT22;32155;54.076;12.092;2024-01-07T14:43:01;0.10;99.90
46458;DHT22;32155;54.076;12.092;2024-01-07T14:45:29;0.10;99.90
46458;DHT22;32155;54.076;12.092;2024-01-07T14:47:54;0.10;99.90
46458;DHT22;32155;54.076;12.092;2024-01-07T14:50:20;0.20;99.90
46458;DHT22;32155;54.076;12.092;2024-01-07T14:52:49;0.20;99.90
46458;DHT22;32155;54.076;12.092;2024-01-07T14:55:14;0.10;99.90
46458;DHT22;32155;54.076;12.092;2024-01-07T14:57:42;0.30;99.90
46458;DHT22;32155;54.076;12.092;2024-01-07T15:00:08;0.30;99.90
46458;DHT22;32155;54.076;12.092;2024-01-07T15:02:34;0.20;99.90
46458;DHT22;32155;54.076;12.092;2024-01-07T15:05:00;0.20;99.90
46458;DHT22;32155;54.076;12.092;2024-01-07T15:07:26;0.30;99.90
46458;DHT22;32155;54.076;12.092;2024-01-07T15:09:51;0.20;99.90
46458;DHT22;32155;54.076;12.092;2024-01-07T15:12:17;0.20;99.90
46458;DHT22;32155;54.076;12.092;2024-01-07T15:14:44;0.30;99.90
46458;DHT22;32155;54.076;12.092;2024-01-07T15:17:09;0.20;99.90
46458;DHT22;32155;54.076;12.092;2024-01-07T15:19:35;0.20;99.90
46458;DHT22;32155;54.076;12.092;2024-01-07T15:22:00;0.30;99.90
46458;DHT22;32155;54.076;12.092;2024-01-07T15:24:26;0.30;99.90
46458;DHT22;32155;54.076;12.092;2024-01-07T15:26:52;0.20;99.90
46458;DHT22;32155;54.076;12.092;2024-01-07T15:29:20;0.20;99.90
46458;DHT22;32155;54.076;12.092;2024-01-07T15:31:46;0.20;99.90
46458;DHT22;32155;54.076;12.092;2024-01-07T15:34:11;0.20;99.90